Time;durP1;ratioP1;P1;durP2;ratioP2;P2;SDS_P1;SDS_P2;PMS_P1;PMS_P2;Temp;Humidity;BMP_temperature;BMP_pressure;BME280_temperature;BME280_humidity;BME280_pressure;Samples;Min_cycle;Max_cycle;Signal;HPM_P1;HPM_P2
2020/12/04 00:00:48;;;;;;;19.73;12.63;;;3.50;99.60;;;;;;5028230;28;20060;-86
2020/12/04 00:03:14;;;;;;;20.42;12.68;;;3.50;99.50;;;;;;5015437;28;20037;-86
2020/12/04 00:05:41;;;;;;;18.85;12.73;;;3.40;99.50;;;;;;5021610;28;20053;-86
2020/12/04 00:08:15;;;;;;;19.15;12.55;;;3.40;99.40;;;;;;5026447;28;20049;-86
2020/12/04 00:10:46;;;;;;;17.77;12.48;;;3.50;99.30;;;;;;5028120;28;20033;-86
2020/12/04 00:13:12;;;;;;;20.88;12.98;;;3.50;99.30;;;;;;5026012;28;20544;-86
2020/12/04 00:16:02;;;;;;;18.25;12.68;;;3.40;99.40;;;;;;5001647;28;20140;-86
2020/12/04 00:18:29;;;;;;;18.73;12.13;;;3.40;99.20;;;;;;5017861;28;20633;-86
2020/12/04 00:20:55;;;;;;;21.83;13.63;;;3.40;99.10;;;;;;5027214;28;20138;-85
2020/12/04 00:23:41;;;;;;;18.52;11.82;;;3.40;98.80;;;;;;5030572;28;20042;-85
2020/12/04 00:26:07;;;;;;;16.77;11.68;;;3.40;99.00;;;;;;5015670;28;20112;-85
2020/12/04 00:28:33;;;;;;;18.73;12.75;;;3.50;98.80;;;;;;5028935;28;20394;-85
2020/12/04 00:31:00;;;;;;;17.13;10.93;;;3.50;98.90;;;;;;5019346;28;20511;-85
2020/12/04 00:33:46;;;;;;;20.45;11.90;;;3.50;98.70;;;;;;5015366;28;20444;-84
2020/12/04 00:36:32;;;;;;;16.25;11.55;;;3.50;98.70;;;;;;5014280;28;20431;-84
2020/12/04 00:38:57;;;;;;;19.75;12.07;;;3.50;98.60;;;;;;5021262;28;20044;-83
2020/12/04 00:41:24;;;;;;;14.95;10.85;;;3.50;98.50;;;;;;5014242;28;20116;-84
2020/12/04 00:43:50;;;;;;;16.77;10.90;;;3.50;98.30;;;;;;5022508;28;20048;-83
2020/12/04 00:46:16;;;;;;;;;;;3.60;98.30;;;;;;5030322;28;20041;-85
2020/12/04 00:48:44;;;;;;;15.80;10.40;;;3.50;98.00;;;;;;5031043;28;19932;-83
2020/12/04 00:51:10;;;;;;;17.75;11.10;;;3.60;98.10;;;;;;5026913;28;20050;-83
2020/12/04 00:53:36;;;;;;;;;;;3.50;98.20;;;;;;5020146;28;20048;-84
2020/12/04 00:56:03;;;;;;;15.23;10.50;;;3.60;97.80;;;;;;5026581;28;19924;-83
2020/12/04 00:58:49;;;;;;;14.65;10.80;;;3.60;98.10;;;;;;5041257;28;20057;-83
2020/12/04 01:01:15;;;;;;;16.52;10.85;;;3.60;98.10;;;;;;5031313;28;20426;-85
2020/12/04 01:03:41;;;;;;;16.02;10.38;;;3.60;98.10;;;;;;5048009;28;20037;-85
2020/12/04 01:06:11;;;;;;;15.07;10.20;;;3.60;97.80;;;;;;5034394;28;20045;-84
2020/12/04 01:08:38;;;;;;;17.50;10.75;;;3.60;97.90;;;;;;5034638;28;20395;-84
2020/12/04 01:11:04;;;;;;;16.85;10.20;;;3.60;97.70;;;;;;5025401;28;20436;-84
2020/12/04 01:13:30;;;;;;;;;;;3.60;97.40;;;;;;5033843;28;20052;-84
2020/12/04 01:16:17;;;;;;;15.70;10.27;;;3.70;97.10;;;;;;5006784;28;19921;-83
2020/12/04 01:18:43;;;;;;;15.75;10.25;;;3.70;97.50;;;;;;5034412;28;20055;-84
2020/12/04 01:21:29;;;;;;;14.23;10.13;;;3.60;97.30;;;;;;5015903;28;20044;-84
2020/12/04 01:24:15;;;;;;;17.60;10.50;;;3.70;97.40;;;;;;5023779;28;20038;-84
2020/12/04 01:26:41;;;;;;;14.93;10.80;;;3.60;97.40;;;;;;5031399;28;20379;-84
2020/12/04 01:29:08;;;;;;;16.55;10.10;;;3.70;97.40;;;;;;5038513;28;20128;-83
2020/12/04 01:31:34;;;;;;;17.05;10.95;;;3.60;97.40;;;;;;5026520;28;20087;-82
2020/12/04 01:34:19;;;;;;;13.40;9.75;;;3.60;97.40;;;;;;5031983;28;20144;-81
2020/12/04 01:36:49;;;;;;;15.75;9.68;;;3.60;97.50;;;;;;5030179;28;20463;-83
2020/12/04 01:39:15;;;;;;;16.48;11.32;;;3.60;96.80;;;;;;5034163;28;20045;-83
2020/12/04 01:41:41;;;;;;;15.70;11.15;;;3.60;97.40;;;;;;5032897;28;20033;-84
2020/12/04 01:44:26;;;;;;;16.13;10.00;;;3.60;97.10;;;;;;4991944;28;20041;-82
2020/12/04 01:46:52;;;;;;;13.07;9.73;;;3.70;97.50;;;;;;5021257;28;20087;-84
2020/12/04 01:49:38;;;;;;;15.55;9.05;;;3.70;97.20;;;;;;5033309;28;20095;-80
2020/12/04 01:52:25;;;;;;;15.63;9.98;;;3.60;97.30;;;;;;5024826;28;20498;-82
2020/12/04 01:54:52;;;;;;;14.68;10.73;;;3.70;97.30;;;;;;5035759;28;20116;-83
2020/12/04 01:57:23;;;;;;;15.38;9.48;;;3.70;97.00;;;;;;5032101;28;20816;-82
2020/12/04 01:59:49;;;;;;;12.13;8.57;;;3.60;96.90;;;;;;5033377;28;20116;-83
2020/12/04 02:02:34;;;;;;;14.70;9.75;;;3.60;96.90;;;;;;5032191;28;20113;-85
2020/12/04 02:04:59;;;;;;;14.75;9.27;;;3.70;96.80;;;;;;5025515;28;20052;-83
2020/12/04 02:07:34;;;;;;;14.98;8.88;;;3.70;96.70;;;;;;5022953;28;20029;-86
2020/12/04 02:10:32;;;;;;;12.73;8.30;;;3.70;96.70;;;;;;5025598;28;20057;-85
2020/12/04 02:13:00;;;;;;;12.15;8.23;;;3.70;96.70;;;;;;5015681;28;20491;-84
2020/12/04 02:15:26;;;;;;;13.00;8.23;;;4.00;96.90;;;;;;5027948;28;20046;-86
2020/12/04 02:17:56;;;;;;;13.43;8.35;;;3.60;96.80;;;;;;5032740;28;20041;-85
2020/12/04 02:20:23;;;;;;;12.90;8.27;;;3.70;96.90;;;;;;5021375;28;20044;-81
2020/12/04 02:22:49;;;;;;;12.80;8.32;;;3.60;96.70;;;;;;5033051;28;20069;-83
2020/12/04 02:25:14;;;;;;;14.98;9.40;;;3.60;96.60;;;;;;5029285;28;20502;-84
2020/12/04 02:28:00;;;;;;;14.10;8.27;;;3.60;96.30;;;;;;5032288;28;20088;-83
2020/12/04 02:30:30;;;;;;;13.95;9.85;;;3.60;96.50;;;;;;5025519;28;20518;-83
2020/12/04 02:32:57;;;;;;;10.88;8.18;;;3.60;96.50;;;;;;5019038;28;20044;-85
2020/12/04 02:35:22;;;;;;;14.02;9.20;;;3.60;96.40;;;;;;5015487;28;20069;-83
2020/12/04 02:37:48;;;;;;;13.93;8.77;;;3.60;96.10;;;;;;5030131;28;20511;-83
2020/12/04 02:40:34;;;;;;;11.80;7.53;;;3.60;96.40;;;;;;5008858;28;20103;-83
2020/12/04 02:43:21;;;;;;;16.25;8.77;;;3.60;96.40;;;;;;5026099;28;20407;-83
2020/12/04 02:45:47;;;;;;;13.02;8.82;;;3.60;96.30;;;;;;5013488;28;20148;-80
2020/12/04 02:48:13;;;;;;;13.70;9.27;;;3.60;96.40;;;;;;5024043;28;20392;-83
2020/12/04 02:50:39;;;;;;;;;;;3.50;96.30;;;;;;5034828;28;20497;-83
2020/12/04 02:53:05;;;;;;;13.35;8.55;;;3.50;96.30;;;;;;5033809;28;20012;-82
2020/12/04 02:55:34;;;;;;;12.00;7.95;;;3.60;96.50;;;;;;5022367;28;20033;-82
2020/12/04 02:58:01;;;;;;;12.65;8.15;;;3.50;96.40;;;;;;5014299;28;20073;-82
2020/12/04 03:00:27;;;;;;;13.60;9.32;;;3.60;96.50;;;;;;5021889;28;20041;-79
2020/12/04 03:02:53;;;;;;;18.35;9.07;;;3.60;96.10;;;;;;5017800;28;20113;-81
2020/12/04 03:05:39;;;;;;;13.32;8.35;;;3.60;96.40;;;;;;5021559;28;20380;-80
2020/12/04 03:08:25;;;;;;;14.85;9.35;;;3.60;96.10;;;;;;5016651;28;20045;-81
2020/12/04 03:10:51;;;;;;;;;;;3.60;96.40;;;;;;5027924;28;20038;-83
2020/12/04 03:13:17;;;;;;;12.52;8.20;;;3.60;95.30;;;;;;5027636;28;19969;-85
2020/12/04 03:16:03;;;;;;;12.77;8.88;;;3.70;96.10;;;;;;5006600;28;20053;-83
2020/12/04 03:18:51;;;;;;;12.40;7.80;;;3.70;95.90;;;;;;5030330;28;20049;-83
2020/12/04 03:21:16;;;;;;;14.48;8.40;;;3.70;95.90;;;;;;5028990;28;20045;-83
2020/12/04 03:23:42;;;;;;;15.52;8.70;;;3.70;95.90;;;;;;5031905;28;20041;-83
2020/12/04 03:26:08;;;;;;;13.20;8.20;;;3.70;96.00;;;;;;5027329;28;20541;-84
2020/12/04 03:28:34;;;;;;;15.10;8.93;;;3.70;96.00;;;;;;5023648;28;20029;-83
2020/12/04 03:30:59;;;;;;;14.05;9.35;;;3.70;95.90;;;;;;5032616;28;20049;-85
2020/12/04 03:33:45;;;;;;;12.27;8.05;;;3.70;96.00;;;;;;5031210;28;20137;-83
2020/12/04 03:36:11;;;;;;;15.98;8.55;;;3.70;96.10;;;;;;5018204;28;20511;-83
2020/12/04 03:38:36;;;;;;;15.70;9.27;;;3.70;96.20;;;;;;5033043;28;20490;-83
2020/12/04 03:41:02;;;;;;;15.52;9.40;;;3.70;96.00;;;;;;5048230;28;20072;-84
2020/12/04 03:43:28;;;;;;;13.90;8.48;;;3.70;96.10;;;;;;5021565;28;20037;-84
2020/12/04 03:46:14;;;;;;;11.50;8.35;;;3.70;96.10;;;;;;5032427;28;20068;-83
2020/12/04 03:48:41;;;;;;;17.35;8.93;;;3.60;96.00;;;;;;5032669;28;20041;-82
2020/12/04 03:51:27;;;;;;;14.90;8.75;;;3.70;96.20;;;;;;5017790;28;20073;-84
2020/12/04 03:53:53;;;;;;;13.55;9.10;;;3.70;96.20;;;;;;5029904;28;20034;-84
2020/12/04 03:56:38;;;;;;;15.68;10.07;;;3.60;96.10;;;;;;5017697;28;20088;-82
2020/12/04 03:59:04;;;;;;;15.68;8.20;;;3.70;96.30;;;;;;5026176;28;20081;-82
2020/12/04 04:01:50;;;;;;;15.95;8.98;;;3.70;96.20;;;;;;5036746;28;20095;-82
2020/12/04 04:04:16;;;;;;;14.48;8.50;;;3.70;96.10;;;;;;5027057;28;20488;-81
2020/12/04 04:06:42;;;;;;;14.27;8.50;;;3.70;95.90;;;;;;5022255;28;20092;-81
2020/12/04 04:09:08;;;;;;;12.30;7.97;;;3.70;96.00;;;;;;5030259;28;20124;-81
2020/12/04 04:11:54;;;;;;;15.43;9.40;;;3.70;96.00;;;;;;5021061;28;20073;-82
2020/12/04 04:14:39;;;;;;;12.95;8.52;;;3.70;95.80;;;;;;5021990;28;20080;-82
2020/12/04 04:17:05;;;;;;;15.43;8.90;;;3.70;96.00;;;;;;5027665;28;20034;-82
2020/12/04 04:19:32;;;;;;;14.38;8.68;;;3.70;96.10;;;;;;5031194;28;20041;-82
2020/12/04 04:21:57;;;;;;;15.80;9.57;;;3.70;96.20;;;;;;5032081;28;20047;-84
2020/12/04 04:24:43;;;;;;;12.95;8.80;;;3.70;96.30;;;;;;5022209;28;20037;-82
2020/12/04 04:27:10;;;;;;;15.45;9.00;;;3.60;96.40;;;;;;5040859;28;20046;-83
2020/12/04 04:29:36;;;;;;;16.25;9.00;;;3.60;96.50;;;;;;5028687;28;20033;-84
2020/12/04 04:32:01;;;;;;;19.58;10.60;;;3.70;96.50;;;;;;5046479;28;20552;-83
2020/12/04 04:34:27;;;;;;;16.00;9.20;;;3.70;96.60;;;;;;5029760;28;20038;-81
2020/12/04 04:37:13;;;;;;;14.15;8.98;;;3.60;96.50;;;;;;5026447;28;20055;-82
2020/12/04 04:39:42;;;;;;;15.75;9.05;;;3.70;96.70;;;;;;5029664;28;20037;-83
2020/12/04 04:42:08;;;;;;;16.08;9.80;;;3.60;96.60;;;;;;5031654;28;20079;-82
2020/12/04 04:44:34;;;;;;;15.77;9.38;;;3.60;96.70;;;;;;5028559;28;20018;-84
2020/12/04 04:47:11;;;;;;;13.68;9.85;;;3.60;96.80;;;;;;5014381;28;20472;-85
2020/12/04 04:49:57;;;;;;;16.10;9.18;;;3.50;96.90;;;;;;5028194;28;20118;-84
2020/12/04 04:52:23;;;;;;;;;;;3.60;97.00;;;;;;5011622;28;20467;-81
2020/12/04 04:54:50;;;;;;;18.45;10.98;;;3.50;97.00;;;;;;5027872;28;20059;-82
2020/12/04 04:57:21;;;;;;;15.57;9.60;;;3.50;97.20;;;;;;5030205;28;20044;-83
2020/12/04 05:00:07;;;;;;;16.52;9.45;;;3.50;97.40;;;;;;5030170;28;20042;-82
2020/12/04 05:02:33;;;;;;;17.52;9.27;;;3.50;97.20;;;;;;5029953;28;20042;-84
2020/12/04 05:04:59;;;;;;;13.88;8.73;;;3.50;97.30;;;;;;5030720;28;20041;-83
2020/12/04 05:07:36;;;;;;;14.25;9.38;;;3.50;97.20;;;;;;5028696;28;20096;-83
2020/12/04 05:10:17;;;;;;;17.10;9.85;;;3.60;97.30;;;;;;5029795;28;20065;-85
2020/12/04 05:13:03;;;;;;;16.45;9.60;;;3.50;97.30;;;;;;5036385;28;20049;-84
2020/12/04 05:15:31;;;;;;;16.08;9.60;;;3.50;97.40;;;;;;5030764;28;20431;-84
2020/12/04 05:18:18;;;;;;;17.17;9.95;;;3.50;97.40;;;;;;5010451;28;20108;-82
2020/12/04 05:20:51;;;;;;;20.80;10.48;;;3.50;97.50;;;;;;5024506;28;20303;-82
2020/12/04 05:23:49;;;;;;;15.35;9.48;;;3.50;97.50;;;;;;5027467;28;20052;-82
2020/12/04 05:26:28;;;;;;;17.15;10.43;;;3.50;97.60;;;;;;5029683;28;20042;-83
2020/12/04 05:28:54;;;;;;;18.23;10.40;;;3.50;97.60;;;;;;5023490;28;20033;-83
2020/12/04 05:31:39;;;;;;;17.35;10.60;;;3.50;97.60;;;;;;5019724;28;20132;-82
2020/12/04 05:34:25;;;;;;;19.92;10.43;;;3.50;97.70;;;;;;5009739;28;20048;-82
2020/12/04 05:36:51;;;;;;;18.52;10.55;;;3.50;97.70;;;;;;5031155;28;20458;-84
2020/12/04 05:39:17;;;;;;;16.27;10.52;;;3.50;97.80;;;;;;5023180;28;20068;-85
2020/12/04 05:41:48;;;;;;;20.42;11.25;;;3.50;97.90;;;;;;5029211;28;20048;-84
2020/12/04 05:44:34;;;;;;;18.17;10.15;;;3.50;97.90;;;;;;5029224;28;20096;-83
2020/12/04 05:46:59;;;;;;;18.58;10.93;;;3.50;98.00;;;;;;5027498;28;20088;-84
2020/12/04 05:49:45;;;;;;;19.00;10.55;;;3.50;98.10;;;;;;5031036;28;20099;-84
2020/12/04 05:52:14;;;;;;;17.55;10.55;;;3.50;98.20;;;;;;5027874;28;20042;-85
2020/12/04 05:55:00;;;;;;;20.83;10.45;;;3.50;98.20;;;;;;5013648;28;20132;-85
2020/12/04 05:57:28;;;;;;;19.30;11.25;;;3.50;98.20;;;;;;5026949;28;20041;-85
2020/12/04 06:00:15;;;;;;;18.98;9.48;;;3.50;98.30;;;;;;5027731;28;20065;-84
2020/12/04 06:02:41;;;;;;;19.45;11.52;;;3.50;98.20;;;;;;5025801;28;20048;-85
2020/12/04 06:05:11;;;;;;;16.25;9.93;;;3.50;98.30;;;;;;5031479;28;20384;-86
2020/12/04 06:08:02;;;;;;;19.05;11.65;;;3.50;98.30;;;;;;5014802;28;20081;-83
2020/12/04 06:10:30;;;;;;;20.80;11.27;;;3.60;98.40;;;;;;5033349;28;20041;-82
2020/12/04 06:13:15;;;;;;;20.52;10.82;;;3.60;98.50;;;;;;5032823;28;20046;-84
2020/12/04 06:15:41;;;;;;;18.55;10.95;;;3.50;98.60;;;;;;5033276;28;20091;-84
2020/12/04 06:18:11;;;;;;;19.48;11.27;;;3.60;98.60;;;;;;5018683;28;20136;-84
2020/12/04 06:20:47;;;;;;;21.58;12.73;;;3.60;98.80;;;;;;5034437;28;20120;-84
2020/12/04 06:23:18;;;;;;;20.35;11.00;;;3.60;98.80;;;;;;5033634;28;20040;-84
2020/12/04 06:25:54;;;;;;;19.48;11.98;;;3.60;98.80;;;;;;5033561;28;20479;-84
2020/12/04 06:28:24;;;;;;;19.27;11.67;;;3.60;98.90;;;;;;5025956;28;20041;-84
2020/12/04 06:31:10;;;;;;;24.23;12.27;;;3.60;98.90;;;;;;5021231;28;20044;-83
2020/12/04 06:33:42;;;;;;;23.02;12.25;;;3.60;98.90;;;;;;5042402;28;20554;-82
2020/12/04 06:36:10;;;;;;;17.50;11.30;;;3.60;99.00;;;;;;5019219;28;20046;-83
2020/12/04 06:38:57;;;;;;;19.85;11.40;;;3.60;99.00;;;;;;5020434;28;20056;-83
2020/12/04 06:41:26;;;;;;;19.88;11.82;;;3.70;99.10;;;;;;5031986;28;20136;-84
2020/12/04 06:44:19;;;;;;;23.15;12.88;;;3.60;99.00;;;;;;5018007;28;20112;-83
2020/12/04 06:47:13;;;;;;;20.42;11.60;;;3.70;99.10;;;;;;5020982;28;20053;-84
2020/12/04 06:49:39;;;;;;;24.75;12.70;;;3.70;99.20;;;;;;5033087;28;21323;-85
2020/12/04 06:52:25;;;;;;;17.52;10.77;;;3.70;99.20;;;;;;5011225;28;20539;-84
2020/12/04 06:54:51;;;;;;;21.65;12.52;;;3.70;99.20;;;;;;5031448;28;20049;-85
2020/12/04 06:57:37;;;;;;;19.55;11.05;;;3.70;99.30;;;;;;5016697;28;20056;-84
2020/12/04 07:00:03;;;;;;;21.60;11.98;;;3.70;99.40;;;;;;5032205;28;20041;-85
2020/12/04 07:02:29;;;;;;;21.85;12.43;;;3.70;99.40;;;;;;5012206;28;20068;-84
2020/12/04 07:04:55;;;;;;;20.65;12.55;;;3.70;99.40;;;;;;5017713;28;20049;-85
2020/12/04 07:07:25;;;;;;;22.23;13.25;;;3.70;99.40;;;;;;5014486;28;20049;-84
2020/12/04 07:09:59;;;;;;;20.60;11.73;;;3.70;99.40;;;;;;5046422;28;20112;-85
2020/12/04 07:12:27;;;;;;;24.40;12.15;;;3.70;99.40;;;;;;5021773;28;20040;-85
2020/12/04 07:14:55;;;;;;;20.70;12.93;;;4.10;99.50;;;;;;5046159;28;20392;-84
2020/12/04 07:17:26;;;;;;;23.80;13.13;;;3.70;99.50;;;;;;5027746;28;20111;-85
2020/12/04 07:19:54;;;;;;;19.92;11.88;;;3.70;99.50;;;;;;5017055;28;20033;-84
2020/12/04 07:22:39;;;;;;;18.58;10.95;;;3.70;99.50;;;;;;5031850;28;20519;-86
2020/12/04 07:25:07;;;;;;;19.23;12.32;;;3.70;99.40;;;;;;5030763;28;20124;-83
2020/12/04 07:27:33;;;;;;;23.70;13.32;;;3.70;99.40;;;;;;5031707;28;20467;-82
2020/12/04 07:30:21;;;;;;;18.85;11.25;;;3.70;99.40;;;;;;5020434;28;20038;-84
2020/12/04 07:32:54;;;;;;;20.77;12.43;;;3.70;99.30;;;;;;5029609;28;20037;-84
2020/12/04 07:35:21;;;;;;;22.70;12.48;;;3.70;99.40;;;;;;5022555;28;20135;-84
2020/12/04 07:38:09;;;;;;;20.67;12.85;;;3.70;99.40;;;;;;5023185;28;20038;-83
2020/12/04 07:40:34;;;;;;;18.15;12.27;;;3.70;99.40;;;;;;5028864;28;20144;-84
2020/12/04 07:43:03;;;;;;;20.10;12.20;;;3.70;99.40;;;;;;5031569;28;20045;-84
2020/12/04 07:45:29;;;;;;;21.38;11.77;;;3.70;99.40;;;;;;5018184;28;20046;-83
2020/12/04 07:47:55;;;;;;;23.35;12.77;;;3.70;99.40;;;;;;5031120;28;20545;-84
2020/12/04 07:50:41;;;;;;;19.60;12.27;;;3.70;99.40;;;;;;5030170;28;20095;-83
2020/12/04 07:53:29;;;;;;;17.67;10.73;;;3.70;99.30;;;;;;5024885;28;20474;-83
2020/12/04 07:55:57;;;;;;;15.85;10.48;;;3.90;99.40;;;;;;5019777;28;20451;-83
2020/12/04 07:58:23;;;;;;;20.02;12.20;;;3.70;99.30;;;;;;5032533;28;20079;-84
2020/12/04 08:01:09;;;;;;;19.08;11.00;;;3.70;99.30;;;;;;5018751;28;20408;-84
2020/12/04 08:03:35;;;;;;;16.73;11.32;;;3.70;99.30;;;;;;5037371;28;20087;-81
2020/12/04 08:06:09;;;;;;;18.80;10.45;;;3.70;99.30;;;;;;5034573;28;20109;-82
2020/12/04 08:08:34;;;;;;;18.27;10.38;;;3.70;99.30;;;;;;5027176;28;20530;-82
2020/12/04 08:11:08;;;;;;;16.67;10.00;;;3.80;99.30;;;;;;5026553;28;20038;-83
2020/12/04 08:13:38;;;;;;;18.42;10.88;;;3.80;99.30;;;;;;5044131;28;20037;-83
2020/12/04 08:16:24;;;;;;;16.33;10.27;;;3.80;99.30;;;;;;5034979;28;20030;-83
2020/12/04 08:19:12;;;;;;;20.17;10.45;;;3.90;99.30;;;;;;5029386;28;20136;-82
2020/12/04 08:22:07;;;;;;;18.25;10.13;;;3.90;99.30;;;;;;5002698;28;20041;-85
2020/12/04 08:24:34;;;;;;;16.05;10.00;;;3.90;99.20;;;;;;5036142;28;20126;-85
2020/12/04 08:27:05;;;;;;;18.10;10.20;;;3.90;99.20;;;;;;5030290;28;20414;-84
2020/12/04 08:29:31;;;;;;;15.20;9.45;;;3.90;99.20;;;;;;5028670;28;20099;-84
2020/12/04 08:32:08;;;;;;;15.40;9.65;;;4.00;99.20;;;;;;5028095;28;20033;-82
2020/12/04 08:34:35;;;;;;;16.38;9.43;;;4.00;99.20;;;;;;5016929;28;20084;-83
2020/12/04 08:37:20;;;;;;;16.77;10.18;;;4.00;99.20;;;;;;5023994;28;20049;-82
2020/12/04 08:40:26;;;;;;;16.10;9.35;;;4.10;99.20;;;;;;5010039;28;20535;-82
2020/12/04 08:43:25;;;;;;;14.85;9.27;;;4.10;99.10;;;;;;5012846;28;20052;-79
2020/12/04 08:45:53;;;;;;;13.93;8.02;;;4.10;99.10;;;;;;5027579;28;20080;-80
2020/12/04 08:48:24;;;;;;;11.27;7.53;;;4.20;99.10;;;;;;5029104;28;20046;-80
2020/12/04 08:51:12;;;;;;;10.80;7.60;;;4.30;99.10;;;;;;5024692;28;20052;-80
2020/12/04 08:53:38;;;;;;;12.45;7.88;;;4.30;99.00;;;;;;5028600;28;20033;-79
2020/12/04 08:56:04;;;;;;;13.07;7.68;;;4.40;98.90;;;;;;5015817;28;20391;-80
2020/12/04 08:58:31;;;;;;;11.05;7.40;;;4.40;98.80;;;;;;5017326;28;20531;-80
2020/12/04 09:00:58;;;;;;;;;;;4.50;98.60;;;;;;5037377;28;20088;-79
2020/12/04 09:03:43;;;;;;;9.23;6.70;;;4.50;98.30;;;;;;5006985;28;20000;-79
2020/12/04 09:06:29;;;;;;;10.13;6.78;;;4.60;98.60;;;;;;5023745;28;20415;-79
2020/12/04 09:08:55;;;;;;;11.95;6.88;;;4.60;98.60;;;;;;5028171;28;20037;-80
2020/12/04 09:11:21;;;;;;;10.05;6.82;;;4.60;98.40;;;;;;5022729;28;20026;-79
2020/12/04 09:13:47;;;;;;;10.13;7.03;;;4.60;98.40;;;;;;5029402;28;20041;-80
2020/12/04 09:16:12;;;;;;;10.23;6.40;;;4.70;98.40;;;;;;5027068;28;20140;-79
2020/12/04 09:18:38;;;;;;;9.52;6.60;;;4.70;98.40;;;;;;5026558;28;20368;-80
2020/12/04 09:21:04;;;;;;;9.52;6.47;;;4.90;98.40;;;;;;5025087;28;20068;-80
2020/12/04 09:23:33;;;;;;;10.35;6.47;;;4.80;98.30;;;;;;5028328;28;20054;-79
2020/12/04 09:25:59;;;;;;;9.45;6.88;;;4.80;98.30;;;;;;5027695;28;20038;-79
2020/12/04 09:28:25;;;;;;;9.55;6.35;;;4.90;98.20;;;;;;5024293;28;20400;-79
2020/12/04 09:30:52;;;;;;;8.48;5.93;;;4.90;98.40;;;;;;5029599;28;20345;-79
2020/12/04 09:33:18;;;;;;;8.18;6.07;;;4.90;98.20;;;;;;5031434;28;20382;-79
2020/12/04 09:35:44;;;;;;;8.73;6.35;;;5.00;98.10;;;;;;5025787;28;20120;-79
2020/12/04 09:38:09;;;;;;;8.13;5.68;;;5.00;98.00;;;;;;4981061;28;20041;-79
2020/12/04 09:40:35;;;;;;;9.05;6.15;;;5.00;97.90;;;;;;5048166;28;20047;-79
2020/12/04 09:43:21;;;;;;;10.10;5.47;;;5.10;97.80;;;;;;5011625;28;20095;-79
2020/12/04 09:45:47;;;;;;;8.60;5.78;;;5.10;97.80;;;;;;5019910;28;20464;-79
2020/12/04 09:48:13;;;;;;;9.18;5.82;;;5.20;97.80;;;;;;5040820;28;21514;-79
2020/12/04 09:50:38;;;;;;;8.27;5.25;;;5.20;97.70;;;;;;5044780;28;20040;-79
2020/12/04 09:53:05;;;;;;;9.05;5.63;;;5.30;97.70;;;;;;5031718;28;20061;-79
2020/12/04 09:55:31;;;;;;;7.35;5.28;;;5.40;97.40;;;;;;5041868;28;20056;-79
2020/12/04 09:57:57;;;;;;;8.13;5.78;;;5.40;97.40;;;;;;5042852;28;20044;-79
2020/12/04 10:00:43;;;;;;;7.20;5.45;;;5.40;97.50;;;;;;5017881;28;20044;-79
2020/12/04 10:03:09;;;;;;;7.13;4.72;;;5.50;97.40;;;;;;5052242;28;20045;-79
2020/12/04 10:05:35;;;;;;;6.90;5.03;;;5.60;97.20;;;;;;5050168;28;20037;-79
2020/12/04 10:08:01;;;;;;;7.82;5.13;;;5.50;97.00;;;;;;5038852;28;20045;-80
2020/12/04 10:10:26;;;;;;;7.78;5.35;;;5.60;97.20;;;;;;5046760;28;20037;-79
2020/12/04 10:13:12;;;;;;;8.25;5.03;;;5.70;97.10;;;;;;5029524;28;20072;-78
2020/12/04 10:15:38;;;;;;;7.32;5.15;;;5.70;96.80;;;;;;5031586;28;20048;-79
2020/12/04 10:18:07;;;;;;;8.15;4.80;;;5.70;96.50;;;;;;5050116;28;20036;-79
2020/12/04 10:20:52;;;;;;;7.18;4.72;;;5.70;96.70;;;;;;5015309;28;20044;-79
2020/12/04 10:23:38;;;;;;;6.30;4.65;;;5.70;96.80;;;;;;5013629;28;20044;-79
2020/12/04 10:26:05;;;;;;;7.93;4.90;;;5.80;96.60;;;;;;5031608;28;20050;-79
2020/12/04 10:28:32;;;;;;;7.07;4.50;;;5.90;96.80;;;;;;5026183;28;20723;-79
2020/12/04 10:30:59;;;;;;;8.05;4.80;;;6.00;96.70;;;;;;5041708;28;20032;-79
2020/12/04 10:33:25;;;;;;;7.00;4.60;;;6.20;96.60;;;;;;5045804;28;20029;-79
2020/12/04 10:35:51;;;;;;;7.13;4.90;;;6.10;96.20;;;;;;5027980;28;20045;-80
2020/12/04 10:38:17;;;;;;;9.43;4.65;;;6.20;96.10;;;;;;5031458;28;20052;-79
2020/12/04 10:41:02;;;;;;;8.30;4.88;;;6.20;95.90;;;;;;5023106;28;20390;-80
2020/12/04 10:43:28;;;;;;;5.72;4.28;;;6.20;96.10;;;;;;5046169;28;20044;-78
2020/12/04 10:45:54;;;;;;;7.32;5.03;;;6.60;96.30;;;;;;5039541;28;20124;-78
2020/12/04 10:48:20;;;;;;;7.53;4.20;;;6.30;96.00;;;;;;5045214;28;20060;-78
2020/12/04 10:50:47;;;;;;;9.60;5.53;;;6.30;95.90;;;;;;5037464;28;20441;-78
2020/12/04 10:53:13;;;;;;;6.22;4.50;;;6.30;95.90;;;;;;5032943;28;20517;-78
2020/12/04 10:55:44;;;;;;;7.20;4.47;;;6.40;95.70;;;;;;5034700;28;20063;-78
2020/12/04 10:58:11;;;;;;;7.15;4.93;;;6.50;95.80;;;;;;5033381;28;20043;-78
2020/12/04 11:00:57;;;;;;;9.32;5.88;;;6.60;95.70;;;;;;5032836;28;20052;-78
2020/12/04 11:03:40;;;;;;;7.72;5.05;;;6.70;95.60;;;;;;5013832;28;20049;-78
2020/12/04 11:06:06;;;;;;;6.05;4.30;;;6.70;95.50;;;;;;5027063;28;20144;-78
2020/12/04 11:08:32;;;;;;;6.95;4.93;;;6.80;95.60;;;;;;5028992;28;20033;-79
2020/12/04 11:10:58;;;;;;;6.30;4.75;;;6.80;95.10;;;;;;5032502;28;20462;-78
2020/12/04 11:13:24;;;;;;;6.20;4.95;;;6.90;95.20;;;;;;5017407;28;20076;-78
2020/12/04 11:15:50;;;;;;;6.47;4.95;;;6.90;95.10;;;;;;5031505;28;20103;-78
2020/12/04 11:18:36;;;;;;;6.28;4.43;;;6.80;95.10;;;;;;5022311;28;20055;-78
2020/12/04 11:21:02;;;;;;;6.13;5.07;;;6.90;95.30;;;;;;5037147;28;20037;-78
2020/12/04 11:23:29;;;;;;;5.50;4.05;;;6.90;95.10;;;;;;5028844;28;20029;-78
2020/12/04 11:26:15;;;;;;;5.43;3.78;;;6.90;95.10;;;;;;5019555;28;20056;-78
2020/12/04 11:29:01;;;;;;;5.60;4.13;;;7.00;95.10;;;;;;5029432;28;20045;-78
2020/12/04 11:31:27;;;;;;;5.32;3.92;;;7.10;94.90;;;;;;5025805;28;20040;-78
2020/12/04 11:33:53;;;;;;;5.68;3.80;;;7.10;94.80;;;;;;5042849;28;20047;-78
2020/12/04 11:36:19;;;;;;;5.07;3.90;;;7.10;94.50;;;;;;5028314;28;20430;-79
2020/12/04 11:38:44;;;;;;;5.32;3.70;;;7.10;94.40;;;;;;5030254;28;20493;-78
2020/12/04 11:41:10;;;;;;;4.47;3.10;;;7.20;94.50;;;;;;5012629;28;20037;-79
2020/12/04 11:43:36;;;;;;;4.78;3.50;;;7.20;94.50;;;;;;5029019;28;20037;-79
2020/12/04 11:46:02;;;;;;;6.38;3.78;;;7.30;94.40;;;;;;5020477;28;20124;-78
2020/12/04 11:48:28;;;;;;;5.97;3.22;;;7.30;94.40;;;;;;5032567;28;20115;-78
2020/12/04 11:50:54;;;;;;;4.55;3.08;;;7.40;94.30;;;;;;5042640;28;20160;-78
2020/12/04 11:53:20;;;;;;;4.60;3.17;;;7.40;94.20;;;;;;5025661;28;20044;-78
2020/12/04 11:55:45;;;;;;;5.38;3.58;;;7.40;94.20;;;;;;5029808;28;20544;-78
2020/12/04 11:58:11;;;;;;;5.50;3.53;;;7.50;94.00;;;;;;5030190;28;20036;-78
2020/12/04 12:00:57;;;;;;;4.30;3.10;;;7.50;93.80;;;;;;5001632;28;20129;-78
2020/12/04 12:03:23;;;;;;;5.95;3.85;;;7.50;93.80;;;;;;5036199;28;20061;-78
2020/12/04 12:06:09;;;;;;;5.05;3.50;;;7.50;93.60;;;;;;5018162;28;20061;-78
2020/12/04 12:08:35;;;;;;;;;;;7.50;93.50;;;;;;5048175;28;20032;-78
2020/12/04 12:11:20;;;;;;;5.18;3.20;;;7.40;92.90;;;;;;5024294;28;19928;-78
2020/12/04 12:14:06;;;;;;;4.78;3.60;;;7.40;93.60;;;;;;5030286;28;20559;-78
2020/12/04 12:16:32;;;;;;;4.50;3.33;;;7.40;93.60;;;;;;5048850;28;20037;-78
2020/12/04 12:18:58;;;;;;;4.50;3.65;;;7.30;93.50;;;;;;5038470;28;20041;-78
2020/12/04 12:21:24;;;;;;;5.72;3.53;;;7.40;93.50;;;;;;5023516;28;20112;-78
2020/12/04 12:23:51;;;;;;;5.32;3.53;;;7.30;93.50;;;;;;5013481;28;20049;-78
2020/12/04 12:26:16;;;;;;;;;;;7.30;93.70;;;;;;5036094;28;20057;-77
2020/12/04 12:28:43;;;;;;;4.38;3.25;;;7.30;92.90;;;;;;5044494;28;19921;-77
2020/12/04 12:31:08;;;;;;;5.60;3.45;;;7.40;93.60;;;;;;5024703;28;20098;-78
2020/12/04 12:33:34;;;;;;;4.97;3.50;;;7.30;93.50;;;;;;5045663;28;20037;-78
2020/12/04 12:36:00;;;;;;;5.15;3.75;;;7.30;93.50;;;;;;5033257;28;20034;-78
2020/12/04 12:38:26;;;;;;;4.78;3.65;;;7.30;93.60;;;;;;5028298;28;20032;-77
2020/12/04 12:40:52;;;;;;;4.18;2.65;;;7.40;93.50;;;;;;5038963;28;20079;-77
2020/12/04 12:43:39;;;;;;;4.32;3.17;;;7.40;93.50;;;;;;5029127;28;20041;-78
2020/12/04 12:46:04;;;;;;;4.90;2.70;;;7.50;93.30;;;;;;5048427;28;20383;-77
2020/12/04 12:48:30;;;;;;;6.63;2.90;;;7.50;93.10;;;;;;5027990;28;20037;-78
2020/12/04 12:50:56;;;;;;;3.92;2.97;;;7.60;92.70;;;;;;5042541;28;20543;-78
2020/12/04 12:53:23;;;;;;;4.80;2.80;;;7.70;92.50;;;;;;5038460;28;20542;-78
2020/12/04 12:55:51;;;;;;;3.47;2.50;;;7.80;92.10;;;;;;5057968;28;20040;-78
2020/12/04 12:58:38;;;;;;;2.65;2.03;;;7.70;91.20;;;;;;5037228;28;20088;-79
2020/12/04 13:01:04;;;;;;;4.03;2.40;;;7.60;91.10;;;;;;5048756;28;20069;-78
2020/12/04 13:03:50;;;;;;;3.22;2.58;;;7.50;91.40;;;;;;5021539;28;20095;-78
2020/12/04 13:06:15;;;;;;;3.88;2.50;;;7.50;91.20;;;;;;5027646;28;20045;-78
2020/12/04 13:08:42;;;;;;;3.53;2.30;;;7.50;91.20;;;;;;5036326;28;20063;-78
2020/12/04 13:11:09;;;;;;;3.03;2.15;;;7.50;91.40;;;;;;5001223;28;20367;-78
2020/12/04 13:13:35;;;;;;;4.75;2.33;;;7.50;91.20;;;;;;5010926;28;20052;-78